sensor_id;sensor_type;location;lat;lon;timestamp;P1;durP1;ratioP1;P2;durP2;ratioP2
48552;SDS011;34335;51.566;6.994;2023-04-08T00:01:41;12.35;;;5.32;;
48552;SDS011;34335;51.566;6.994;2023-04-08T00:04:07;9.43;;;4.97;;
48552;SDS011;34335;51.566;6.994;2023-04-08T00:06:33;9.48;;;5.15;;
48552;SDS011;34335;51.566;6.994;2023-04-08T00:08:59;9.45;;;4.15;;
48552;SDS011;34335;51.566;6.994;2023-04-08T00:11:24;9.85;;;4.28;;
48552;SDS011;34335;51.566;6.994;2023-04-08T00:13:50;11.38;;;5.32;;
48552;SDS011;34335;51.566;6.994;2023-04-08T00:16:15;8.57;;;4.47;;
48552;SDS011;34335;51.566;6.994;2023-04-08T00:18:41;11.30;;;5.40;;
48552;SDS011;34335;51.566;6.994;2023-04-08T00:21:07;10.10;;;4.82;;
48552;SDS011;34335;51.566;6.994;2023-04-08T00:23:32;7.65;;;4.53;;
48552;SDS011;34335;51.566;6.994;2023-04-08T00:25:57;8.38;;;5.00;;
48552;SDS011;34335;51.566;6.994;2023-04-08T00:28:23;9.45;;;5.82;;
48552;SDS011;34335;51.566;6.994;2023-04-08T00:30:48;9.52;;;4.60;;
48552;SDS011;34335;51.566;6.994;2023-04-08T00:33:15;9.75;;;4.80;;
48552;SDS011;34335;51.566;6.994;2023-04-08T00:35:40;10.32;;;4.25;;
48552;SDS011;34335;51.566;6.994;2023-04-08T00:38:06;8.48;;;4.30;;
48552;SDS011;34335;51.566;6.994;2023-04-08T00:40:32;9.63;;;4.85;;
48552;SDS011;34335;51.566;6.994;2023-04-08T00:42:58;9.73;;;5.00;;
48552;SDS011;34335;51.566;6.994;2023-04-08T00:45:24;11.25;;;5.45;;
48552;SDS011;34335;51.566;6.994;2023-04-08T00:47:50;8.70;;;5.45;;
48552;SDS011;34335;51.566;6.994;2023-04-08T00:50:16;10.25;;;4.97;;
48552;SDS011;34335;51.566;6.994;2023-04-08T00:52:43;8.63;;;4.65;;
48552;SDS011;34335;51.566;6.994;2023-04-08T00:55:08;7.90;;;4.32;;
48552;SDS011;34335;51.566;6.994;2023-04-08T00:57:34;7.72;;;4.63;;
48552;SDS011;34335;51.566;6.994;2023-04-08T01:00:00;8.70;;;4.55;;
48552;SDS011;34335;51.566;6.994;2023-04-08T01:05:29;10.10;;;4.97;;
48552;SDS011;34335;51.566;6.994;2023-04-08T01:08:00;8.15;;;4.93;;
48552;SDS011;34335;51.566;6.994;2023-04-08T01:10:32;7.60;;;4.57;;
48552;SDS011;34335;51.566;6.994;2023-04-08T01:13:00;9.55;;;4.70;;
48552;SDS011;34335;51.566;6.994;2023-04-08T01:15:29;10.50;;;5.68;;
48552;SDS011;34335;51.566;6.994;2023-04-08T01:17:57;7.35;;;3.70;;
48552;SDS011;34335;51.566;6.994;2023-04-08T01:20:25;12.98;;;5.63;;
48552;SDS011;34335;51.566;6.994;2023-04-08T01:25:22;8.57;;;4.43;;
48552;SDS011;34335;51.566;6.994;2023-04-08T01:27:51;8.23;;;4.75;;
48552;SDS011;34335;51.566;6.994;2023-04-08T01:30:20;8.02;;;4.00;;
48552;SDS011;34335;51.566;6.994;2023-04-08T01:32:48;9.35;;;4.90;;
48552;SDS011;34335;51.566;6.994;2023-04-08T01:35:16;7.88;;;4.65;;
48552;SDS011;34335;51.566;6.994;2023-04-08T01:37:42;8.77;;;4.75;;
48552;SDS011;34335;51.566;6.994;2023-04-08T01:40:11;8.90;;;4.43;;
48552;SDS011;34335;51.566;6.994;2023-04-08T01:42:37;9.30;;;4.43;;
48552;SDS011;34335;51.566;6.994;2023-04-08T01:45:03;11.90;;;5.07;;
48552;SDS011;34335;51.566;6.994;2023-04-08T01:47:30;11.23;;;4.55;;
48552;SDS011;34335;51.566;6.994;2023-04-08T01:49:56;5.78;;;3.75;;
48552;SDS011;34335;51.566;6.994;2023-04-08T01:52:22;9.68;;;4.55;;
48552;SDS011;34335;51.566;6.994;2023-04-08T01:54:50;8.80;;;3.83;;
48552;SDS011;34335;51.566;6.994;2023-04-08T01:57:18;9.77;;;4.50;;
48552;SDS011;34335;51.566;6.994;2023-04-08T01:59:51;8.73;;;4.43;;
48552;SDS011;34335;51.566;6.994;2023-04-08T02:02:20;8.85;;;4.40;;
48552;SDS011;34335;51.566;6.994;2023-04-08T02:04:50;9.23;;;4.00;;
48552;SDS011;34335;51.566;6.994;2023-04-08T02:07:15;9.20;;;4.38;;
48552;SDS011;34335;51.566;6.994;2023-04-08T02:09:42;12.35;;;4.32;;
48552;SDS011;34335;51.566;6.994;2023-04-08T02:12:07;7.30;;;3.72;;
48552;SDS011;34335;51.566;6.994;2023-04-08T02:14:33;14.48;;;5.00;;
48552;SDS011;34335;51.566;6.994;2023-04-08T02:17:01;7.95;;;4.50;;
48552;SDS011;34335;51.566;6.994;2023-04-08T02:19:40;9.65;;;4.65;;
48552;SDS011;34335;51.566;6.994;2023-04-08T02:22:24;10.18;;;5.28;;
48552;SDS011;34335;51.566;6.994;2023-04-08T02:25:00;7.78;;;3.65;;
48552;SDS011;34335;51.566;6.994;2023-04-08T02:27:28;12.95;;;5.03;;
48552;SDS011;34335;51.566;6.994;2023-04-08T02:29:59;9.82;;;4.30;;
48552;SDS011;34335;51.566;6.994;2023-04-08T02:32:29;7.20;;;4.40;;
48552;SDS011;34335;51.566;6.994;2023-04-08T02:34:56;10.07;;;5.38;;
48552;SDS011;34335;51.566;6.994;2023-04-08T02:37:23;10.27;;;5.45;;
48552;SDS011;34335;51.566;6.994;2023-04-08T02:39:49;8.00;;;4.43;;
48552;SDS011;34335;51.566;6.994;2023-04-08T02:42:14;6.25;;;3.33;;
48552;SDS011;34335;51.566;6.994;2023-04-08T02:44:39;7.90;;;4.15;;
48552;SDS011;34335;51.566;6.994;2023-04-08T02:47:05;8.48;;;4.15;;
48552;SDS011;34335;51.566;6.994;2023-04-08T02:49:30;6.13;;;3.17;;
48552;SDS011;34335;51.566;6.994;2023-04-08T02:51:55;6.05;;;3.88;;
48552;SDS011;34335;51.566;6.994;2023-04-08T02:54:21;7.25;;;3.75;;
48552;SDS011;34335;51.566;6.994;2023-04-08T02:56:46;6.75;;;3.20;;
48552;SDS011;34335;51.566;6.994;2023-04-08T02:59:11;6.90;;;3.40;;
48552;SDS011;34335;51.566;6.994;2023-04-08T03:01:37;10.95;;;4.85;;
48552;SDS011;34335;51.566;6.994;2023-04-08T03:04:02;6.63;;;3.55;;
48552;SDS011;34335;51.566;6.994;2023-04-08T03:06:27;8.57;;;4.18;;
48552;SDS011;34335;51.566;6.994;2023-04-08T03:08:53;8.25;;;4.53;;
48552;SDS011;34335;51.566;6.994;2023-04-08T03:11:18;7.03;;;3.75;;
48552;SDS011;34335;51.566;6.994;2023-04-08T03:13:43;7.53;;;3.83;;
48552;SDS011;34335;51.566;6.994;2023-04-08T03:16:10;7.68;;;4.43;;
48552;SDS011;34335;51.566;6.994;2023-04-08T03:18:35;7.32;;;3.95;;
48552;SDS011;34335;51.566;6.994;2023-04-08T03:21:01;9.68;;;4.75;;
48552;SDS011;34335;51.566;6.994;2023-04-08T03:23:27;13.25;;;5.15;;
48552;SDS011;34335;51.566;6.994;2023-04-08T03:25:52;10.55;;;5.72;;
48552;SDS011;34335;51.566;6.994;2023-04-08T03:28:17;6.82;;;3.97;;
48552;SDS011;34335;51.566;6.994;2023-04-08T03:30:43;10.80;;;4.45;;
48552;SDS011;34335;51.566;6.994;2023-04-08T03:33:08;8.82;;;4.25;;
48552;SDS011;34335;51.566;6.994;2023-04-08T03:35:33;7.20;;;4.40;;
48552;SDS011;34335;51.566;6.994;2023-04-08T03:37:59;8.25;;;3.40;;
48552;SDS011;34335;51.566;6.994;2023-04-08T03:40:25;8.23;;;3.33;;
48552;SDS011;34335;51.566;6.994;2023-04-08T03:42:50;7.00;;;3.90;;
48552;SDS011;34335;51.566;6.994;2023-04-08T03:45:15;6.63;;;3.08;;
48552;SDS011;34335;51.566;6.994;2023-04-08T03:47:41;6.25;;;2.88;;
48552;SDS011;34335;51.566;6.994;2023-04-08T03:50:06;5.82;;;3.13;;
48552;SDS011;34335;51.566;6.994;2023-04-08T03:52:32;7.72;;;3.38;;
48552;SDS011;34335;51.566;6.994;2023-04-08T03:54:57;6.32;;;3.20;;
48552;SDS011;34335;51.566;6.994;2023-04-08T03:57:22;3.45;;;2.10;;
48552;SDS011;34335;51.566;6.994;2023-04-08T03:59:47;6.53;;;3.25;;
48552;SDS011;34335;51.566;6.994;2023-04-08T04:02:13;5.20;;;3.05;;
48552;SDS011;34335;51.566;6.994;2023-04-08T04:04:38;6.35;;;2.92;;
48552;SDS011;34335;51.566;6.994;2023-04-08T04:07:03;7.32;;;3.42;;
48552;SDS011;34335;51.566;6.994;2023-04-08T04:09:29;5.75;;;3.00;;
48552;SDS011;34335;51.566;6.994;2023-04-08T04:11:54;4.97;;;2.78;;
48552;SDS011;34335;51.566;6.994;2023-04-08T04:14:19;6.38;;;3.35;;
48552;SDS011;34335;51.566;6.994;2023-04-08T04:16:45;4.73;;;2.73;;
48552;SDS011;34335;51.566;6.994;2023-04-08T04:19:10;5.90;;;2.97;;
48552;SDS011;34335;51.566;6.994;2023-04-08T04:21:35;4.35;;;2.53;;
48552;SDS011;34335;51.566;6.994;2023-04-08T04:24:01;5.43;;;2.78;;
48552;SDS011;34335;51.566;6.994;2023-04-08T04:26:26;6.50;;;3.30;;
48552;SDS011;34335;51.566;6.994;2023-04-08T04:28:51;6.17;;;3.37;;
48552;SDS011;34335;51.566;6.994;2023-04-08T04:31:20;5.68;;;3.58;;
48552;SDS011;34335;51.566;6.994;2023-04-08T04:33:47;3.70;;;2.38;;
48552;SDS011;34335;51.566;6.994;2023-04-08T04:36:13;5.00;;;2.60;;
48552;SDS011;34335;51.566;6.994;2023-04-08T04:38:39;5.55;;;3.10;;
48552;SDS011;34335;51.566;6.994;2023-04-08T04:41:05;5.78;;;3.65;;
48552;SDS011;34335;51.566;6.994;2023-04-08T04:43:30;5.33;;;3.13;;
48552;SDS011;34335;51.566;6.994;2023-04-08T04:45:55;4.83;;;2.83;;
48552;SDS011;34335;51.566;6.994;2023-04-08T04:48:21;4.63;;;2.90;;
48552;SDS011;34335;51.566;6.994;2023-04-08T04:50:56;7.57;;;3.15;;
48552;SDS011;34335;51.566;6.994;2023-04-08T04:53:28;5.40;;;3.03;;
48552;SDS011;34335;51.566;6.994;2023-04-08T04:55:54;5.25;;;2.83;;
48552;SDS011;34335;51.566;6.994;2023-04-08T04:58:19;5.55;;;3.33;;
48552;SDS011;34335;51.566;6.994;2023-04-08T05:00:45;5.47;;;3.03;;
48552;SDS011;34335;51.566;6.994;2023-04-08T05:03:10;5.93;;;2.42;;
48552;SDS011;34335;51.566;6.994;2023-04-08T05:05:36;5.80;;;2.92;;
48552;SDS011;34335;51.566;6.994;2023-04-08T05:08:01;5.40;;;3.42;;
48552;SDS011;34335;51.566;6.994;2023-04-08T05:10:27;6.07;;;3.15;;
48552;SDS011;34335;51.566;6.994;2023-04-08T05:12:52;4.65;;;2.35;;
48552;SDS011;34335;51.566;6.994;2023-04-08T05:15:17;6.77;;;3.40;;
48552;SDS011;34335;51.566;6.994;2023-04-08T05:17:43;6.38;;;3.03;;
48552;SDS011;34335;51.566;6.994;2023-04-08T05:20:08;4.93;;;2.80;;
48552;SDS011;34335;51.566;6.994;2023-04-08T05:22:33;5.53;;;2.83;;
48552;SDS011;34335;51.566;6.994;2023-04-08T05:24:59;6.88;;;3.47;;
48552;SDS011;34335;51.566;6.994;2023-04-08T05:27:24;5.93;;;3.22;;
48552;SDS011;34335;51.566;6.994;2023-04-08T05:29:50;7.00;;;3.15;;
48552;SDS011;34335;51.566;6.994;2023-04-08T05:32:15;4.95;;;3.05;;
48552;SDS011;34335;51.566;6.994;2023-04-08T05:34:41;8.15;;;3.63;;
48552;SDS011;34335;51.566;6.994;2023-04-08T05:37:06;4.78;;;2.25;;
48552;SDS011;34335;51.566;6.994;2023-04-08T05:39:31;5.25;;;2.83;;
48552;SDS011;34335;51.566;6.994;2023-04-08T05:41:57;7.05;;;3.88;;
48552;SDS011;34335;51.566;6.994;2023-04-08T05:44:22;4.93;;;2.45;;
48552;SDS011;34335;51.566;6.994;2023-04-08T05:46:47;6.85;;;3.50;;
48552;SDS011;34335;51.566;6.994;2023-04-08T05:49:13;7.53;;;3.95;;
48552;SDS011;34335;51.566;6.994;2023-04-08T05:51:38;4.97;;;2.85;;
48552;SDS011;34335;51.566;6.994;2023-04-08T05:54:03;9.85;;;4.57;;
48552;SDS011;34335;51.566;6.994;2023-04-08T05:56:29;9.25;;;4.03;;
48552;SDS011;34335;51.566;6.994;2023-04-08T05:58:56;8.35;;;4.45;;
48552;SDS011;34335;51.566;6.994;2023-04-08T06:01:21;6.40;;;3.35;;
48552;SDS011;34335;51.566;6.994;2023-04-08T06:03:46;14.27;;;3.90;;
48552;SDS011;34335;51.566;6.994;2023-04-08T06:06:12;5.60;;;2.90;;
48552;SDS011;34335;51.566;6.994;2023-04-08T06:08:38;5.22;;;3.00;;
48552;SDS011;34335;51.566;6.994;2023-04-08T06:11:03;8.48;;;2.95;;
48552;SDS011;34335;51.566;6.994;2023-04-08T06:13:29;7.30;;;2.85;;
48552;SDS011;34335;51.566;6.994;2023-04-08T06:15:55;8.10;;;3.75;;
48552;SDS011;34335;51.566;6.994;2023-04-08T06:18:20;5.85;;;2.65;;
48552;SDS011;34335;51.566;6.994;2023-04-08T06:20:46;5.93;;;3.40;;
48552;SDS011;34335;51.566;6.994;2023-04-08T06:23:11;7.93;;;3.85;;
48552;SDS011;34335;51.566;6.994;2023-04-08T06:25:37;6.10;;;3.72;;
48552;SDS011;34335;51.566;6.994;2023-04-08T06:28:02;7.60;;;3.75;;
48552;SDS011;34335;51.566;6.994;2023-04-08T06:30:28;5.43;;;2.95;;
48552;SDS011;34335;51.566;6.994;2023-04-08T06:32:53;5.40;;;3.08;;
48552;SDS011;34335;51.566;6.994;2023-04-08T06:35:18;5.10;;;3.43;;
48552;SDS011;34335;51.566;6.994;2023-04-08T06:37:44;9.43;;;3.67;;
48552;SDS011;34335;51.566;6.994;2023-04-08T06:40:09;9.05;;;4.43;;
48552;SDS011;34335;51.566;6.994;2023-04-08T06:42:35;9.27;;;4.85;;
48552;SDS011;34335;51.566;6.994;2023-04-08T06:45:02;7.55;;;2.97;;
48552;SDS011;34335;51.566;6.994;2023-04-08T06:47:28;8.50;;;4.40;;
48552;SDS011;34335;51.566;6.994;2023-04-08T06:49:53;6.78;;;3.22;;
48552;SDS011;34335;51.566;6.994;2023-04-08T06:52:19;6.65;;;4.10;;
48552;SDS011;34335;51.566;6.994;2023-04-08T06:54:44;8.20;;;3.80;;
48552;SDS011;34335;51.566;6.994;2023-04-08T06:57:10;8.38;;;4.18;;
48552;SDS011;34335;51.566;6.994;2023-04-08T06:59:35;11.52;;;5.32;;
48552;SDS011;34335;51.566;6.994;2023-04-08T07:02:01;7.20;;;3.90;;
48552;SDS011;34335;51.566;6.994;2023-04-08T07:04:26;6.78;;;4.35;;
48552;SDS011;34335;51.566;6.994;2023-04-08T07:06:51;10.55;;;4.70;;
48552;SDS011;34335;51.566;6.994;2023-04-08T07:09:17;7.38;;;3.78;;
48552;SDS011;34335;51.566;6.994;2023-04-08T07:11:42;10.63;;;4.50;;
48552;SDS011;34335;51.566;6.994;2023-04-08T07:14:07;7.70;;;4.70;;
48552;SDS011;34335;51.566;6.994;2023-04-08T07:16:33;7.95;;;5.05;;
48552;SDS011;34335;51.566;6.994;2023-04-08T07:18:58;10.45;;;4.78;;
48552;SDS011;34335;51.566;6.994;2023-04-08T07:21:23;7.55;;;4.22;;
48552;SDS011;34335;51.566;6.994;2023-04-08T07:23:49;8.40;;;4.45;;
48552;SDS011;34335;51.566;6.994;2023-04-08T07:26:14;10.30;;;4.68;;
48552;SDS011;34335;51.566;6.994;2023-04-08T07:28:40;7.05;;;4.32;;
48552;SDS011;34335;51.566;6.994;2023-04-08T07:31:09;10.60;;;5.47;;
48552;SDS011;34335;51.566;6.994;2023-04-08T07:33:42;8.65;;;4.30;;
48552;SDS011;34335;51.566;6.994;2023-04-08T07:36:08;8.70;;;4.18;;
48552;SDS011;34335;51.566;6.994;2023-04-08T07:38:35;10.93;;;5.15;;
48552;SDS011;34335;51.566;6.994;2023-04-08T07:41:00;7.90;;;4.45;;
48552;SDS011;34335;51.566;6.994;2023-04-08T07:43:26;8.20;;;4.47;;
48552;SDS011;34335;51.566;6.994;2023-04-08T07:45:51;9.02;;;4.35;;
48552;SDS011;34335;51.566;6.994;2023-04-08T07:48:16;13.25;;;5.25;;
48552;SDS011;34335;51.566;6.994;2023-04-08T07:50:42;15.60;;;4.93;;
48552;SDS011;34335;51.566;6.994;2023-04-08T07:53:07;6.80;;;4.22;;
48552;SDS011;34335;51.566;6.994;2023-04-08T07:55:33;8.43;;;4.70;;
48552;SDS011;34335;51.566;6.994;2023-04-08T07:57:59;9.18;;;4.57;;
48552;SDS011;34335;51.566;6.994;2023-04-08T08:00:25;9.88;;;4.38;;
48552;SDS011;34335;51.566;6.994;2023-04-08T08:02:50;10.73;;;4.05;;
48552;SDS011;34335;51.566;6.994;2023-04-08T08:05:16;8.05;;;4.15;;
48552;SDS011;34335;51.566;6.994;2023-04-08T08:07:41;6.75;;;3.92;;
48552;SDS011;34335;51.566;6.994;2023-04-08T08:10:07;10.43;;;5.10;;
48552;SDS011;34335;51.566;6.994;2023-04-08T08:12:32;5.53;;;3.83;;
48552;SDS011;34335;51.566;6.994;2023-04-08T08:14:58;8.97;;;4.27;;
48552;SDS011;34335;51.566;6.994;2023-04-08T08:17:23;8.93;;;4.82;;
48552;SDS011;34335;51.566;6.994;2023-04-08T08:19:49;10.88;;;4.70;;
48552;SDS011;34335;51.566;6.994;2023-04-08T08:22:15;8.32;;;4.22;;
48552;SDS011;34335;51.566;6.994;2023-04-08T08:24:40;8.50;;;4.20;;
48552;SDS011;34335;51.566;6.994;2023-04-08T08:27:05;9.23;;;3.97;;
48552;SDS011;34335;51.566;6.994;2023-04-08T08:29:31;8.20;;;4.18;;
48552;SDS011;34335;51.566;6.994;2023-04-08T08:31:56;8.00;;;4.15;;
48552;SDS011;34335;51.566;6.994;2023-04-08T08:34:22;6.75;;;3.55;;
48552;SDS011;34335;51.566;6.994;2023-04-08T08:36:47;9.57;;;4.18;;
48552;SDS011;34335;51.566;6.994;2023-04-08T08:39:12;6.60;;;4.30;;
48552;SDS011;34335;51.566;6.994;2023-04-08T08:41:38;8.65;;;3.88;;
48552;SDS011;34335;51.566;6.994;2023-04-08T08:44:05;9.27;;;4.18;;
48552;SDS011;34335;51.566;6.994;2023-04-08T08:46:31;8.40;;;4.60;;
48552;SDS011;34335;51.566;6.994;2023-04-08T08:48:57;10.10;;;4.50;;
48552;SDS011;34335;51.566;6.994;2023-04-08T08:51:22;7.15;;;3.63;;
48552;SDS011;34335;51.566;6.994;2023-04-08T08:53:48;6.03;;;3.78;;
48552;SDS011;34335;51.566;6.994;2023-04-08T08:56:13;6.73;;;3.57;;
48552;SDS011;34335;51.566;6.994;2023-04-08T08:58:39;8.40;;;4.80;;
48552;SDS011;34335;51.566;6.994;2023-04-08T09:06:34;6.55;;;3.70;;
48552;SDS011;34335;51.566;6.994;2023-04-08T09:09:00;5.95;;;3.58;;
48552;SDS011;34335;51.566;6.994;2023-04-08T09:11:26;13.20;;;4.68;;
48552;SDS011;34335;51.566;6.994;2023-04-08T09:13:52;9.55;;;4.35;;
48552;SDS011;34335;51.566;6.994;2023-04-08T09:16:17;9.97;;;4.67;;
48552;SDS011;34335;51.566;6.994;2023-04-08T09:18:44;8.52;;;4.10;;
48552;SDS011;34335;51.566;6.994;2023-04-08T09:21:11;8.93;;;4.45;;
48552;SDS011;34335;51.566;6.994;2023-04-08T09:26:08;7.82;;;4.22;;
48552;SDS011;34335;51.566;6.994;2023-04-08T09:28:34;7.85;;;4.05;;
48552;SDS011;34335;51.566;6.994;2023-04-08T09:31:00;7.30;;;3.72;;
48552;SDS011;34335;51.566;6.994;2023-04-08T09:33:41;6.75;;;4.20;;
48552;SDS011;34335;51.566;6.994;2023-04-08T09:36:06;5.30;;;3.23;;
48552;SDS011;34335;51.566;6.994;2023-04-08T09:38:32;6.32;;;3.63;;
48552;SDS011;34335;51.566;6.994;2023-04-08T09:40:57;9.10;;;3.92;;
48552;SDS011;34335;51.566;6.994;2023-04-08T09:43:23;7.32;;;3.50;;
48552;SDS011;34335;51.566;6.994;2023-04-08T09:45:50;8.82;;;4.03;;
48552;SDS011;34335;51.566;6.994;2023-04-08T09:48:17;7.00;;;3.58;;
48552;SDS011;34335;51.566;6.994;2023-04-08T09:50:48;7.32;;;3.17;;
48552;SDS011;34335;51.566;6.994;2023-04-08T09:53:18;5.80;;;3.08;;
48552;SDS011;34335;51.566;6.994;2023-04-08T09:55:50;4.93;;;2.85;;
48552;SDS011;34335;51.566;6.994;2023-04-08T09:58:20;6.60;;;3.45;;
48552;SDS011;34335;51.566;6.994;2023-04-08T10:00:51;6.97;;;3.08;;
48552;SDS011;34335;51.566;6.994;2023-04-08T10:05:51;7.18;;;3.72;;
48552;SDS011;34335;51.566;6.994;2023-04-08T10:08:17;6.07;;;2.92;;
48552;SDS011;34335;51.566;6.994;2023-04-08T10:10:43;3.63;;;2.25;;
48552;SDS011;34335;51.566;6.994;2023-04-08T10:13:10;5.60;;;3.08;;
48552;SDS011;34335;51.566;6.994;2023-04-08T10:15:36;6.20;;;3.35;;
48552;SDS011;34335;51.566;6.994;2023-04-08T10:23:00;5.88;;;2.92;;
48552;SDS011;34335;51.566;6.994;2023-04-08T10:25:33;7.18;;;3.10;;
48552;SDS011;34335;51.566;6.994;2023-04-08T10:28:44;5.20;;;2.80;;
48552;SDS011;34335;51.566;6.994;2023-04-08T10:30:52;5.85;;;2.67;;
48552;SDS011;34335;51.566;6.994;2023-04-08T10:33:22;6.30;;;3.03;;
48552;SDS011;34335;51.566;6.994;2023-04-08T10:35:51;5.15;;;3.45;;
48552;SDS011;34335;51.566;6.994;2023-04-08T10:38:18;6.15;;;3.53;;
48552;SDS011;34335;51.566;6.994;2023-04-08T10:40:44;6.20;;;3.70;;
48552;SDS011;34335;51.566;6.994;2023-04-08T10:43:12;6.97;;;3.55;;
48552;SDS011;34335;51.566;6.994;2023-04-08T10:45:41;5.30;;;2.80;;
48552;SDS011;34335;51.566;6.994;2023-04-08T10:48:13;8.60;;;3.25;;
48552;SDS011;34335;51.566;6.994;2023-04-08T10:50:52;6.20;;;2.67;;
48552;SDS011;34335;51.566;6.994;2023-04-08T10:53:36;7.60;;;3.17;;
48552;SDS011;34335;51.566;6.994;2023-04-08T10:58:30;6.45;;;3.35;;
48552;SDS011;34335;51.566;6.994;2023-04-08T11:00:55;5.07;;;2.97;;
48552;SDS011;34335;51.566;6.994;2023-04-08T11:03:31;6.38;;;3.83;;
48552;SDS011;34335;51.566;6.994;2023-04-08T11:06:00;7.20;;;3.20;;
48552;SDS011;34335;51.566;6.994;2023-04-08T11:08:30;4.63;;;2.80;;
48552;SDS011;34335;51.566;6.994;2023-04-08T11:11:02;5.75;;;2.92;;
48552;SDS011;34335;51.566;6.994;2023-04-08T11:13:29;6.55;;;3.03;;
48552;SDS011;34335;51.566;6.994;2023-04-08T11:15:55;4.20;;;1.98;;
48552;SDS011;34335;51.566;6.994;2023-04-08T11:18:23;4.93;;;2.60;;
48552;SDS011;34335;51.566;6.994;2023-04-08T11:20:49;6.97;;;2.75;;
48552;SDS011;34335;51.566;6.994;2023-04-08T11:23:15;4.13;;;2.67;;
48552;SDS011;34335;51.566;6.994;2023-04-08T11:25:41;6.55;;;2.95;;
48552;SDS011;34335;51.566;6.994;2023-04-08T11:28:09;4.97;;;2.88;;
48552;SDS011;34335;51.566;6.994;2023-04-08T11:30:54;5.68;;;2.85;;
48552;SDS011;34335;51.566;6.994;2023-04-08T11:33:23;6.82;;;2.95;;
48552;SDS011;34335;51.566;6.994;2023-04-08T11:35:50;8.57;;;3.17;;
48552;SDS011;34335;51.566;6.994;2023-04-08T11:38:16;7.35;;;3.42;;
48552;SDS011;34335;51.566;6.994;2023-04-08T11:40:51;7.43;;;3.05;;
48552;SDS011;34335;51.566;6.994;2023-04-08T11:43:25;8.50;;;3.10;;
48552;SDS011;34335;51.566;6.994;2023-04-08T11:45:51;8.65;;;3.50;;
48552;SDS011;34335;51.566;6.994;2023-04-08T11:48:16;6.63;;;2.78;;
48552;SDS011;34335;51.566;6.994;2023-04-08T11:50:43;5.43;;;3.08;;
48552;SDS011;34335;51.566;6.994;2023-04-08T11:53:15;5.63;;;2.90;;
48552;SDS011;34335;51.566;6.994;2023-04-08T11:55:45;6.18;;;3.38;;
48552;SDS011;34335;51.566;6.994;2023-04-08T11:58:11;6.15;;;3.33;;
48552;SDS011;34335;51.566;6.994;2023-04-08T12:00:36;4.90;;;2.15;;
48552;SDS011;34335;51.566;6.994;2023-04-08T12:03:02;8.30;;;2.97;;
48552;SDS011;34335;51.566;6.994;2023-04-08T12:05:28;5.85;;;3.10;;
48552;SDS011;34335;51.566;6.994;2023-04-08T12:07:53;6.03;;;2.67;;
48552;SDS011;34335;51.566;6.994;2023-04-08T12:10:18;5.70;;;2.90;;
48552;SDS011;34335;51.566;6.994;2023-04-08T12:12:43;4.30;;;2.17;;
48552;SDS011;34335;51.566;6.994;2023-04-08T12:15:09;5.55;;;3.35;;
48552;SDS011;34335;51.566;6.994;2023-04-08T12:17:35;6.38;;;3.63;;
48552;SDS011;34335;51.566;6.994;2023-04-08T12:20:02;5.68;;;2.75;;
48552;SDS011;34335;51.566;6.994;2023-04-08T12:22:28;5.40;;;3.33;;
48552;SDS011;34335;51.566;6.994;2023-04-08T12:24:53;5.82;;;2.88;;
48552;SDS011;34335;51.566;6.994;2023-04-08T12:27:19;5.82;;;3.45;;
48552;SDS011;34335;51.566;6.994;2023-04-08T12:29:44;5.80;;;3.30;;
48552;SDS011;34335;51.566;6.994;2023-04-08T12:32:10;5.68;;;3.13;;
48552;SDS011;34335;51.566;6.994;2023-04-08T12:34:36;6.10;;;3.38;;
48552;SDS011;34335;51.566;6.994;2023-04-08T12:37:01;7.55;;;3.70;;
48552;SDS011;34335;51.566;6.994;2023-04-08T12:39:26;5.20;;;2.80;;
48552;SDS011;34335;51.566;6.994;2023-04-08T12:41:52;7.72;;;2.97;;
48552;SDS011;34335;51.566;6.994;2023-04-08T12:44:17;6.38;;;3.75;;
48552;SDS011;34335;51.566;6.994;2023-04-08T12:46:43;4.75;;;3.05;;
48552;SDS011;34335;51.566;6.994;2023-04-08T12:49:08;7.07;;;3.92;;
48552;SDS011;34335;51.566;6.994;2023-04-08T12:51:34;7.25;;;3.75;;
48552;SDS011;34335;51.566;6.994;2023-04-08T12:54:00;6.75;;;3.22;;
48552;SDS011;34335;51.566;6.994;2023-04-08T12:56:27;5.95;;;3.28;;
48552;SDS011;34335;51.566;6.994;2023-04-08T12:58:53;6.53;;;3.60;;
48552;SDS011;34335;51.566;6.994;2023-04-08T13:01:19;7.75;;;4.10;;
48552;SDS011;34335;51.566;6.994;2023-04-08T13:03:44;6.30;;;3.37;;
48552;SDS011;34335;51.566;6.994;2023-04-08T13:06:11;7.03;;;3.95;;
48552;SDS011;34335;51.566;6.994;2023-04-08T13:08:36;5.50;;;2.53;;
48552;SDS011;34335;51.566;6.994;2023-04-08T13:11:02;6.10;;;3.60;;
48552;SDS011;34335;51.566;6.994;2023-04-08T13:13:27;4.97;;;2.53;;
48552;SDS011;34335;51.566;6.994;2023-04-08T13:15:52;8.73;;;4.10;;
48552;SDS011;34335;51.566;6.994;2023-04-08T13:18:18;7.00;;;3.40;;
48552;SDS011;34335;51.566;6.994;2023-04-08T13:20:43;4.93;;;3.30;;
48552;SDS011;34335;51.566;6.994;2023-04-08T13:23:08;6.30;;;3.10;;
48552;SDS011;34335;51.566;6.994;2023-04-08T13:25:34;5.30;;;2.95;;
48552;SDS011;34335;51.566;6.994;2023-04-08T13:27:59;5.63;;;3.17;;
48552;SDS011;34335;51.566;6.994;2023-04-08T13:30:25;6.00;;;3.50;;
48552;SDS011;34335;51.566;6.994;2023-04-08T13:32:50;6.90;;;3.35;;
48552;SDS011;34335;51.566;6.994;2023-04-08T13:35:15;5.57;;;3.50;;
48552;SDS011;34335;51.566;6.994;2023-04-08T13:37:40;6.17;;;3.20;;
48552;SDS011;34335;51.566;6.994;2023-04-08T13:40:06;5.30;;;3.13;;
48552;SDS011;34335;51.566;6.994;2023-04-08T13:42:32;7.60;;;3.67;;
48552;SDS011;34335;51.566;6.994;2023-04-08T13:44:58;5.82;;;3.00;;
48552;SDS011;34335;51.566;6.994;2023-04-08T13:47:24;6.68;;;3.80;;
48552;SDS011;34335;51.566;6.994;2023-04-08T13:49:50;6.32;;;4.07;;
48552;SDS011;34335;51.566;6.994;2023-04-08T13:52:17;6.50;;;4.00;;
48552;SDS011;34335;51.566;6.994;2023-04-08T13:54:42;5.13;;;3.50;;
48552;SDS011;34335;51.566;6.994;2023-04-08T13:57:07;8.03;;;4.27;;
48552;SDS011;34335;51.566;6.994;2023-04-08T13:59:33;9.68;;;5.35;;
48552;SDS011;34335;51.566;6.994;2023-04-08T14:01:58;6.68;;;3.35;;
48552;SDS011;34335;51.566;6.994;2023-04-08T14:04:23;7.20;;;4.15;;
48552;SDS011;34335;51.566;6.994;2023-04-08T14:06:49;5.50;;;3.25;;
48552;SDS011;34335;51.566;6.994;2023-04-08T14:09:18;8.20;;;4.65;;
48552;SDS011;34335;51.566;6.994;2023-04-08T14:11:44;6.97;;;4.13;;
48552;SDS011;34335;51.566;6.994;2023-04-08T14:14:10;8.20;;;3.92;;
48552;SDS011;34335;51.566;6.994;2023-04-08T14:16:36;7.80;;;3.78;;
48552;SDS011;34335;51.566;6.994;2023-04-08T14:19:01;6.82;;;4.15;;
48552;SDS011;34335;51.566;6.994;2023-04-08T14:21:28;7.30;;;3.55;;
48552;SDS011;34335;51.566;6.994;2023-04-08T14:23:53;8.05;;;4.32;;
48552;SDS011;34335;51.566;6.994;2023-04-08T14:26:18;5.80;;;3.97;;
48552;SDS011;34335;51.566;6.994;2023-04-08T14:28:44;7.93;;;4.35;;
48552;SDS011;34335;51.566;6.994;2023-04-08T14:31:11;6.68;;;4.03;;
48552;SDS011;34335;51.566;6.994;2023-04-08T14:33:37;9.65;;;4.75;;
48552;SDS011;34335;51.566;6.994;2023-04-08T14:36:03;10.00;;;4.60;;
48552;SDS011;34335;51.566;6.994;2023-04-08T14:38:28;8.30;;;4.38;;
48552;SDS011;34335;51.566;6.994;2023-04-08T14:40:53;6.67;;;4.37;;
48552;SDS011;34335;51.566;6.994;2023-04-08T14:43:19;7.57;;;4.28;;
48552;SDS011;34335;51.566;6.994;2023-04-08T14:45:45;7.95;;;4.03;;
48552;SDS011;34335;51.566;6.994;2023-04-08T14:48:10;7.20;;;3.95;;
48552;SDS011;34335;51.566;6.994;2023-04-08T14:50:35;9.23;;;4.57;;
48552;SDS011;34335;51.566;6.994;2023-04-08T14:53:01;7.30;;;5.25;;
48552;SDS011;34335;51.566;6.994;2023-04-08T14:55:27;6.63;;;3.95;;
48552;SDS011;34335;51.566;6.994;2023-04-08T14:57:53;8.40;;;5.25;;
48552;SDS011;34335;51.566;6.994;2023-04-08T15:00:19;7.90;;;4.65;;
48552;SDS011;34335;51.566;6.994;2023-04-08T15:02:44;8.17;;;5.17;;
48552;SDS011;34335;51.566;6.994;2023-04-08T15:05:10;7.63;;;3.87;;